Time;durP1;ratioP1;P1;durP2;ratioP2;P2;SDS_P1;SDS_P2;PMS_P1;PMS_P2;Temp;Humidity;BMP_temperature;BMP_pressure;BME280_temperature;BME280_humidity;BME280_pressure;Samples;Min_cycle;Max_cycle;Signal;HPM_P1;HPM_P2
2022/07/13 00:07:27;;;;;;;16.77;14.25;;;12.70;99.90;;;;;;21049940;28;20052;-58
2022/07/13 00:17:29;;;;;;;19.77;13.40;;;12.70;99.90;;;;;;21049243;28;20048;-59
2022/07/13 00:27:31;;;;;;;16.60;13.55;;;12.80;99.90;;;;;;20994671;28;20086;-59
2022/07/13 00:37:34;;;;;;;20.65;16.88;;;12.70;99.90;;;;;;20974039;28;20090;-58
2022/07/13 00:47:38;;;;;;;19.52;16.15;;;12.70;99.90;;;;;;20979863;28;20082;-59
2022/07/13 00:57:41;;;;;;;22.05;17.35;;;12.70;99.90;;;;;;20999047;28;20093;-59
2022/07/13 01:07:45;;;;;;;22.77;18.42;;;12.50;99.90;;;;;;21061889;28;20044;-59
2022/07/13 01:17:47;;;;;;;16.70;13.50;;;12.50;99.90;;;;;;21061111;28;20104;-59
2022/07/13 01:27:50;;;;;;;17.05;14.52;;;12.40;99.90;;;;;;21061405;28;20036;-53
2022/07/13 01:37:54;;;;;;;14.07;12.57;;;12.20;99.90;;;;;;21059526;28;20481;-58
2022/07/13 01:47:56;;;;;;;13.20;10.48;;;12.30;99.90;;;;;;21016358;28;20037;-59
2022/07/13 01:58:02;;;;;;;13.32;10.13;;;12.20;99.90;;;;;;20957563;28;20036;-59
2022/07/13 02:08:05;;;;;;;5.97;5.30;;;12.30;99.90;;;;;;20956755;28;20106;-59
2022/07/13 02:18:08;;;;;;;5.35;4.00;;;12.60;99.90;;;;;;20956517;28;20044;-59
2022/07/13 02:28:11;;;;;;;9.35;4.60;;;12.50;99.90;;;;;;21026574;28;20032;-59
2022/07/13 02:38:14;;;;;;;7.53;5.32;;;11.80;99.90;;;;;;21039771;28;20036;-53
2022/07/13 02:48:16;;;;;;;9.23;6.43;;;11.60;99.90;;;;;;21037460;28;20036;-54
2022/07/13 02:58:18;;;;;;;6.43;5.78;;;11.60;99.90;;;;;;21010410;28;20181;-50
2022/07/13 03:08:21;;;;;;;9.65;8.40;;;11.50;99.90;;;;;;20968624;28;20040;-58
2022/07/13 03:18:23;;;;;;;10.13;8.77;;;11.60;99.90;;;;;;20968448;28;20342;-58
2022/07/13 03:28:26;;;;;;;9.32;7.50;;;11.70;99.90;;;;;;20968067;28;20090;-58
2022/07/13 03:38:29;;;;;;;12.80;9.38;;;11.50;99.90;;;;;;20950970;28;20036;-59
2022/07/13 03:48:32;;;;;;;10.77;7.93;;;11.50;99.90;;;;;;21014491;28;20404;-52
2022/07/13 03:58:34;;;;;;;16.55;13.52;;;11.50;99.90;;;;;;21066888;28;20090;-58
2022/07/13 04:08:37;;;;;;;19.55;15.88;;;11.70;99.90;;;;;;21038253;28;20567;-53
2022/07/13 04:18:41;;;;;;;16.17;12.20;;;11.70;99.90;;;;;;21057572;28;20097;-58
2022/07/13 04:28:44;;;;;;;13.73;10.82;;;11.80;99.90;;;;;;20983751;28;20101;-58
2022/07/13 04:38:52;;;;;;;16.50;12.57;;;12.00;99.90;;;;;;20964203;28;20040;-54
2022/07/13 04:48:55;;;;;;;18.25;14.57;;;12.20;99.90;;;;;;20963430;28;20033;-57
2022/07/13 04:58:58;;;;;;;18.88;16.88;;;12.30;99.90;;;;;;20994276;28;20405;-50
2022/07/13 05:09:00;;;;;;;20.75;17.05;;;12.30;99.90;;;;;;21045170;28;20113;-50
2022/07/13 05:19:03;;;;;;;20.38;17.27;;;12.40;99.90;;;;;;21060670;28;20496;-59
2022/07/13 05:29:11;;;;;;;18.33;14.98;;;12.60;99.90;;;;;;21043452;28;20666;-59
2022/07/13 05:39:15;;;;;;;13.80;11.43;;;12.80;99.90;;;;;;21043191;28;20085;-59
2022/07/13 05:49:18;;;;;;;13.15;10.13;;;13.10;99.90;;;;;;21005130;28;20066;-59
2022/07/13 05:59:21;;;;;;;10.27;9.25;;;13.30;99.90;;;;;;20957633;28;20028;-59
2022/07/13 06:09:23;;;;;;;8.57;7.78;;;13.60;99.90;;;;;;20973369;28;20114;-59
2022/07/13 06:19:26;;;;;;;4.40;3.40;;;13.90;99.90;;;;;;20972590;28;20036;-59
2022/07/13 06:29:28;;;;;;;3.80;2.83;;;16.40;99.90;;;;;;20970769;28;20470;-59
2022/07/13 06:39:31;;;;;;;4.80;2.60;;;20.40;99.90;;;;;;20970782;28;20036;-57
2022/07/13 06:49:33;;;;;;;5.28;2.25;;;22.20;99.90;;;;;;20971467;28;20055;-62
2022/07/13 06:59:36;;;;;;;2.45;1.55;;;24.30;97.40;;;;;;21005464;28;20100;-62
2022/07/13 07:09:38;;;;;;;1.50;1.40;;;26.20;92.90;;;;;;21051855;28;20044;-58
2022/07/13 07:19:40;;;;;;;3.60;2.47;;;27.70;90.30;;;;;;21052065;28;20032;-62
2022/07/13 07:29:43;;;;;;;4.95;2.40;;;28.70;86.00;;;;;;21051499;28;20070;-61
2022/07/13 07:39:47;;;;;;;3.22;2.47;;;28.50;83.90;;;;;;21051369;28;20089;-63
2022/07/13 07:49:49;;;;;;;3.28;2.80;;;27.20;81.60;;;;;;21019181;28;20028;-62
2022/07/13 07:59:52;;;;;;;3.70;2.83;;;23.90;91.00;;;;;;20994223;28;20059;-62
2022/07/13 08:09:54;;;;;;;4.38;2.72;;;22.80;92.80;;;;;;20994413;28;20052;-63
2022/07/13 08:19:56;;;;;;;3.72;1.98;;;24.20;92.70;;;;;;20994000;28;20079;-58
2022/07/13 08:29:59;;;;;;;4.88;2.90;;;26.10;91.20;;;;;;21068666;28;20058;-62
2022/07/13 08:40:02;;;;;;;3.53;3.15;;;25.90;90.90;;;;;;21076427;28;20027;-63
2022/07/13 08:50:07;;;;;;;4.32;3.33;;;26.10;90.40;;;;;;21076388;28;20551;-63
2022/07/13 09:00:11;;;;;;;5.30;3.00;;;26.90;90.50;;;;;;21022841;28;20106;-60
2022/07/13 09:10:15;;;;;;;4.82;3.38;;;27.90;89.30;;;;;;20961330;28;20067;-63
2022/07/13 09:20:20;;;;;;;3.10;2.88;;;27.90;86.00;;;;;;20977577;28;20102;-62
2022/07/13 09:30:24;;;;;;;5.18;3.67;;;27.20;83.20;;;;;;20977808;28;20096;-58
2022/07/13 09:40:27;;;;;;;3.65;3.35;;;25.60;86.00;;;;;;20975798;28;20041;-63
2022/07/13 09:50:38;;;;;;;4.20;3.28;;;26.50;88.80;;;;;;21038432;28;20032;-64
2022/07/13 10:00:41;;;;;;;4.13;3.55;;;;;;;;;;21002236;28;20028;-64
2022/07/13 10:10:44;;;;;;;5.85;4.00;;;27.30;90.40;;;;;;21032190;28;20070;-63
2022/07/13 10:20:57;;;;;;;4.38;3.22;;;27.60;83.10;;;;;;20978790;28;20547;-57
2022/07/13 10:31:25;;;;;;;6.03;2.95;;;26.40;84.60;;;;;;20973604;28;20036;-62
2022/07/13 10:41:29;;;;;;;5.25;3.20;;;26.00;86.50;;;;;;20989135;28;20032;-63
2022/07/13 10:51:31;;;;;;;5.18;3.22;;;25.50;90.90;;;;;;20971137;28;20440;-63
2022/07/13 11:01:43;;;;;;;3.85;3.03;;;25.40;90.10;;;;;;21037510;28;20105;-63
2022/07/13 11:11:50;;;;;;;4.18;3.28;;;24.80;91.00;;;;;;21052402;28;20090;-63
2022/07/13 11:22:09;;;;;;;4.03;2.95;;;26.10;90.60;;;;;;21050413;28;20040;-63
2022/07/13 11:32:12;;;;;;;4.88;4.10;;;27.50;89.20;;;;;;21051324;28;20067;-64
2022/07/13 11:42:20;;;;;;;6.22;3.08;;;28.40;86.20;;;;;;21050634;28;20069;-58
2022/07/13 11:52:24;;;;;;;4.85;2.45;;;28.50;86.90;;;;;;20971656;28;20085;-63
2022/07/13 12:02:27;;;;;;;6.88;3.95;;;29.30;87.70;;;;;;20966876;28;20082;-62
2022/07/13 12:12:32;;;;;;;4.97;3.20;;;29.50;82.70;;;;;;20966377;28;20056;-63
2022/07/13 12:22:36;;;;;;;4.53;3.43;;;29.70;83.20;;;;;;20978846;28;20501;-64
2022/07/13 12:33:04;;;;;;;3.42;3.10;;;29.70;82.30;;;;;;21058449;28;20059;-63
2022/07/13 12:43:19;;;;;;;3.85;2.35;;;29.30;80.40;;;;;;21064129;28;20036;-64
2022/07/13 12:53:21;;;;;;;5.30;3.00;;;29.00;83.80;;;;;;21063871;28;20100;-64
2022/07/13 13:03:24;;;;;;;5.78;2.65;;;29.10;79.30;;;;;;20984643;28;20058;-62
2022/07/13 13:13:26;;;;;;;2.67;2.30;;;28.60;82.10;;;;;;20977900;28;20052;-63
2022/07/13 13:23:29;;;;;;;3.42;2.13;;;28.70;81.70;;;;;;20977309;28;20093;-62
2022/07/13 13:33:31;;;;;;;2.50;2.30;;;28.80;82.20;;;;;;20976078;28;20086;-58
2022/07/13 13:43:34;;;;;;;2.65;2.20;;;29.20;79.00;;;;;;20980327;28;20066;-63
2022/07/13 13:53:37;;;;;;;9.98;3.00;;;29.30;77.10;;;;;;21058863;28;20144;-64
2022/07/13 14:03:40;;;;;;;3.75;2.95;;;29.30;78.60;;;;;;20982908;28;20036;-63
2022/07/13 14:13:42;;;;;;;4.57;3.03;;;29.20;80.10;;;;;;20973055;28;20048;-63
2022/07/13 14:23:46;;;;;;;8.23;3.53;;;29.20;80.40;;;;;;20994983;28;20036;-64
2022/07/13 14:33:49;;;;;;;4.38;3.60;;;29.30;80.10;;;;;;21055341;28;20087;-64
2022/07/13 14:43:52;;;;;;;4.90;2.90;;;29.50;78.50;;;;;;21054557;28;20554;-63
2022/07/13 14:54:04;;;;;;;4.45;2.80;;;29.80;79.40;;;;;;21036742;28;20085;-63
2022/07/13 15:04:10;;;;;;;5.53;2.83;;;30.30;78.60;;;;;;20967004;28;20036;-63
2022/07/13 15:14:14;;;;;;;3.50;3.20;;;30.90;76.70;;;;;;20968916;28;20126;-63
2022/07/13 15:24:18;;;;;;;6.80;3.10;;;31.20;75.90;;;;;;20968198;28;20036;-63
2022/07/13 15:34:21;;;;;;;3.67;3.13;;;31.30;75.90;;;;;;20951472;28;20033;-63
2022/07/13 15:44:25;;;;;;;3.10;2.70;;;31.30;76.00;;;;;;20953699;28;20040;-63
2022/07/13 15:54:29;;;;;;;3.75;3.35;;;31.10;75.20;;;;;;20967158;28;20400;-63
2022/07/13 16:04:32;;;;;;;3.70;3.40;;;30.30;74.20;;;;;;20971097;28;20113;-62
2022/07/13 16:14:34;;;;;;;3.10;2.58;;;29.50;76.20;;;;;;21058436;28;20055;-63
2022/07/13 16:24:36;;;;;;;7.22;3.40;;;25.30;83.60;;;;;;21035466;28;20044;-57
2022/07/13 16:34:38;;;;;;;5.78;3.58;;;24.80;85.10;;;;;;20981089;28;20058;-57
2022/07/13 16:44:41;;;;;;;5.28;3.55;;;23.70;89.10;;;;;;20980644;28;20036;-61
2022/07/13 16:54:44;;;;;;;4.30;3.90;;;23.00;90.60;;;;;;20982980;28;20039;-61
2022/07/13 17:04:46;;;;;;;4.13;3.20;;;20.90;93.40;;;;;;21062639;28;20427;-60
2022/07/13 17:14:50;;;;;;;9.32;4.07;;;20.70;93.90;;;;;;21060695;28;20051;-61
2022/07/13 17:24:54;;;;;;;9.25;4.93;;;19.90;95.30;;;;;;21061070;28;20086;-60
2022/07/13 17:34:56;;;;;;;4.68;4.15;;;19.30;97.10;;;;;;21060732;28;20081;-60
2022/07/13 17:44:59;;;;;;;20.92;5.85;;;18.80;98.80;;;;;;21042104;28;20086;-61
2022/07/13 17:55:03;;;;;;;5.90;4.18;;;18.20;99.90;;;;;;20974900;28;20032;-60
2022/07/13 18:05:05;;;;;;;5.22;4.22;;;17.90;99.90;;;;;;20973950;28;20040;-60
2022/07/13 18:15:08;;;;;;;6.25;3.90;;;17.50;99.90;;;;;;20973308;28;20045;-60
2022/07/13 18:25:11;;;;;;;5.82;4.78;;;17.30;99.90;;;;;;21001977;28;20043;-60
2022/07/13 18:35:14;;;;;;;6.32;4.25;;;17.10;99.90;;;;;;21055351;28;20089;-60
2022/07/13 18:45:17;;;;;;;5.18;4.32;;;17.00;99.90;;;;;;21054287;28;20104;-59
2022/07/13 18:55:20;;;;;;;5.10;4.57;;;16.90;99.90;;;;;;21046841;28;20044;-59
2022/07/13 19:05:22;;;;;;;6.00;4.35;;;16.60;99.90;;;;;;20969742;28;20546;-59
2022/07/13 19:15:25;;;;;;;6.25;4.50;;;16.40;99.90;;;;;;20969047;28;20048;-59
2022/07/13 19:35:48;;;;;;;5.90;5.03;;;16.00;99.90;;;;;;20968168;28;20454;-54
2022/07/13 19:45:52;;;;;;;9.98;5.07;;;15.90;99.90;;;;;;20985258;28;20481;-51
2022/07/13 19:55:54;;;;;;;4.20;3.30;;;15.70;99.90;;;;;;21050322;28;20408;-58
2022/07/13 20:05:56;;;;;;;7.22;4.22;;;15.30;99.90;;;;;;21050038;28;20566;-59
2022/07/13 20:15:59;;;;;;;6.78;3.83;;;15.30;99.90;;;;;;21049863;28;20051;-59
2022/07/13 20:26:02;;;;;;;4.70;4.05;;;15.10;99.90;;;;;;21007256;28;20032;-60
2022/07/13 20:36:04;;;;;;;3.40;2.97;;;15.00;99.90;;;;;;20965434;28;20037;-54
2022/07/13 20:46:07;;;;;;;8.60;5.20;;;14.70;99.90;;;;;;20982114;28;20154;-59
2022/07/13 20:56:10;;;;;;;5.85;5.22;;;14.80;99.90;;;;;;20990512;28;20054;-55
2022/07/13 21:06:13;;;;;;;3.75;3.45;;;14.80;99.90;;;;;;21079117;28;20101;-53
2022/07/13 21:16:15;;;;;;;4.90;3.85;;;14.70;99.90;;;;;;21062044;28;20435;-59
2022/07/13 21:26:19;;;;;;;5.85;4.88;;;14.80;99.90;;;;;;21078150;28;20036;-51
2022/07/13 21:36:21;;;;;;;5.57;5.05;;;14.90;99.90;;;;;;21060531;28;20032;-54
2022/07/13 21:46:24;;;;;;;7.80;6.20;;;14.80;99.90;;;;;;21030983;28;20110;-59
2022/07/13 21:56:27;;;;;;;8.00;5.65;;;14.70;99.90;;;;;;20991509;28;20040;-59
2022/07/13 22:06:30;;;;;;;8.35;6.63;;;14.60;99.90;;;;;;20973501;28;20040;-54
2022/07/13 22:17:10;;;;;;;8.65;7.50;;;14.50;99.90;;;;;;20956960;28;20086;-55
2022/07/13 22:27:50;;;;;;;9.15;6.90;;;14.60;99.90;;;;;;21018972;28;20040;-59
2022/07/13 22:38:30;;;;;;;8.80;6.30;;;14.60;99.90;;;;;;21055539;28;20093;-59
2022/07/13 22:49:09;;;;;;;9.23;7.00;;;14.60;99.90;;;;;;21055178;28;20404;-59
2022/07/13 22:59:49;;;;;;;12.10;8.13;;;14.50;99.90;;;;;;21013362;28;20565;-59
2022/07/13 23:10:30;;;;;;;8.88;6.65;;;14.50;99.90;;;;;;20970352;28;20440;-59
2022/07/13 23:21:09;;;;;;;6.63;5.93;;;14.50;99.90;;;;;;20967781;28;20040;-59
2022/07/13 23:31:28;;;;;;;8.75;7.00;;;14.50;99.90;;;;;;20968332;28;20037;-55
2022/07/13 23:41:30;;;;;;;7.40;6.15;;;14.80;99.90;;;;;;20967628;28;20062;-55
2022/07/13 23:51:33;;;;;;;6.38;5.72;;;14.90;99.90;;;;;;21038845;28;20036;-59
